Time;durP1;ratioP1;P1;durP2;ratioP2;P2;SDS_P1;SDS_P2;PMS_P1;PMS_P2;Temp;Humidity;BMP_temperature;BMP_pressure;BME280_temperature;BME280_humidity;BME280_pressure;Samples;Min_cycle;Max_cycle;Signal;HPM_P1;HPM_P2
2022/03/08 00:00:20;;;;;;;25.23;11.93;;;;;;;0.11;100.00;98647.25;4996154;28;20249;-90
2022/03/08 00:02:46;;;;;;;24.30;11.80;;;;;;;3.16;100.00;99137.72;4986087;28;20186;-89
2022/03/08 00:05:12;;;;;;;21.27;10.53;;;;;;;0.52;100.00;98704.19;4987056;28;20434;-86
2022/03/08 00:07:37;;;;;;;28.53;12.90;;;;;;;0.21;100.00;98667.94;4979605;28;20686;-89
2022/03/08 00:10:07;;;;;;;30.03;13.90;;;;;;;1.33;100.00;98851.91;4994103;28;20174;-89
2022/03/08 00:12:33;;;;;;;26.83;12.30;;;;;;;1.98;100.00;98977.13;4980694;28;20207;-89
2022/03/08 00:14:59;;;;;;;27.20;11.50;;;;;;;-0.93;100.00;98494.69;4986580;28;20426;-89
2022/03/08 00:17:24;;;;;;;22.73;10.70;;;;;;;0.83;100.00;98816.81;4984814;28;20271;-89
2022/03/08 00:19:50;;;;;;;22.40;11.27;;;;;;;-0.01;100.00;98657.19;4994441;28;20179;-90
2022/03/08 00:22:15;;;;;;;22.10;10.90;;;;;;;3.29;100.00;99206.97;4994514;28;20255;-89
2022/03/08 00:24:41;;;;;;;30.90;14.03;;;;;;;-0.85;100.00;98507.69;4981099;28;20793;-88
2022/03/08 00:27:06;;;;;;;40.27;17.57;;;;;;;1.20;100.00;98897.56;5001520;28;20179;-90
2022/03/08 00:29:32;;;;;;;39.33;17.37;;;;;;;-0.26;100.00;98669.47;4978211;28;20211;-90
2022/03/08 00:31:57;;;;;;;38.37;16.47;;;;;;;0.73;100.00;98843.44;4990884;28;20203;-90
2022/03/08 00:34:23;;;;;;;33.70;15.43;;;;;;;-0.08;100.00;98694.78;4988684;28;20191;-90
2022/03/08 00:36:48;;;;;;;37.13;16.37;;;;;;;1.19;100.00;98898.31;4991310;28;20211;-91
2022/03/08 00:39:14;;;;;;;36.70;16.03;;;;;;;-0.29;100.00;98623.63;5025689;28;20187;-90
2022/03/08 00:41:39;;;;;;;34.67;14.33;;;;;;;0.88;100.00;98850.38;4989419;28;20310;-90
2022/03/08 00:44:06;;;;;;;28.57;13.10;;;;;;;3.07;100.00;99218.75;5016387;28;20187;-90
2022/03/08 00:46:31;;;;;;;32.10;14.30;;;;;;;0.47;100.00;98740.34;4988860;28;20198;-91
2022/03/08 00:48:58;;;;;;;27.80;13.13;;;;;;;1.69;100.00;98919.34;4976209;28;20431;-89
2022/03/08 00:51:24;;;;;;;32.17;13.97;;;;;;;2.02;100.00;98954.13;4992346;28;20698;-88
2022/03/08 00:53:50;;;;;;;33.10;14.67;;;;;;;0.85;100.00;98799.50;5032481;28;20419;-89
2022/03/08 00:56:15;;;;;;;29.27;13.93;;;;;;;3.01;100.00;99125.81;4993115;28;20651;-90
2022/03/08 00:58:41;;;;;;;30.30;13.90;;;;;;;-0.04;100.00;98613.06;5005108;28;20172;-90
2022/03/08 01:01:08;;;;;;;31.23;14.00;;;;;;;2.74;100.00;99098.19;5005869;28;20179;-88
2022/03/08 01:03:33;;;;;;;33.57;14.47;;;;;;;0.58;100.00;98751.06;5007027;28;20172;-89
2022/03/08 01:05:59;;;;;;;33.20;16.10;;;;;;;0.28;100.00;98694.97;4978134;28;20470;-89
2022/03/08 01:08:25;;;;;;;38.07;17.07;;;;;;;2.88;100.00;99134.97;4978307;28;20179;-89
2022/03/08 01:10:51;;;;;;;36.47;16.10;;;;;;;2.60;100.00;99050.53;4997266;28;20390;-90
2022/03/08 01:13:17;;;;;;;33.57;16.37;;;;;;;3.20;100.00;99144.69;5001119;28;20327;-90
2022/03/08 01:15:42;;;;;;;34.03;15.80;;;;;;;1.03;100.00;98801.66;5000975;28;20934;-89
2022/03/08 01:18:08;;;;;;;31.07;14.33;;;;;;;0.64;100.00;98703.31;5045166;28;20164;-87
2022/03/08 01:20:33;;;;;;;29.27;14.20;;;;;;;1.23;100.00;98820.50;5003733;28;20168;-89
2022/03/08 01:22:59;;;;;;;24.10;12.20;;;;;;;1.85;100.00;98921.25;4997452;28;20160;-90
2022/03/08 01:25:24;;;;;;;25.20;12.43;;;;;;;3.18;100.00;99121.22;4998346;28;20549;-90
2022/03/08 01:27:50;;;;;;;23.23;11.63;;;;;;;3.06;100.00;99122.00;5035766;28;20171;-90
2022/03/08 01:30:18;;;;;;;25.43;11.50;;;;;;;3.30;100.00;99144.53;5033955;28;20171;-90
2022/03/08 01:32:44;;;;;;;21.17;10.70;;;;;;;1.99;100.00;98928.06;5032538;28;20206;-90
2022/03/08 01:35:11;;;;;;;24.23;11.60;;;;;;;2.36;100.00;99010.59;4982042;28;20423;-89
2022/03/08 01:37:36;;;;;;;23.80;11.63;;;;;;;2.96;100.00;99111.41;4990780;28;20191;-89
2022/03/08 01:40:04;;;;;;;23.47;11.57;;;;;;;1.87;100.00;98939.72;5033489;28;20505;-89
2022/03/08 01:42:30;;;;;;;24.93;11.70;;;;;;;2.60;100.00;99051.41;5000745;28;20247;-89
2022/03/08 01:44:56;;;;;;;23.77;11.40;;;;;;;3.35;100.00;99190.72;4999924;28;20957;-88
2022/03/08 01:47:24;;;;;;;25.07;12.07;;;;;;;-0.11;100.00;98595.97;4980524;28;20183;-89
2022/03/08 01:49:51;;;;;;;26.17;13.40;;;;;;;-0.82;100.00;98468.13;5012730;28;20414;-89
2022/03/08 01:52:19;;;;;;;30.30;14.27;;;;;;;1.94;100.00;98966.81;5013333;28;20513;-88
2022/03/08 01:54:44;;;;;;;29.70;14.30;;;;;;;-0.57;100.00;98506.41;4983926;28;20408;-89
2022/03/08 01:57:11;;;;;;;30.00;14.43;;;;;;;-0.41;100.00;98519.19;5014089;28;20427;-87
2022/03/08 01:59:37;;;;;;;29.53;13.67;;;;;;;3.07;100.00;99141.25;4988252;28;20207;-90
2022/03/08 02:02:03;;;;;;;25.73;13.57;;;;;;;2.01;100.00;98959.00;5000615;28;20403;-89
2022/03/08 02:04:28;;;;;;;25.47;12.97;;;;;;;-0.14;100.00;98572.50;5000425;28;20599;-89
2022/03/08 02:06:54;;;;;;;27.47;13.30;;;;;;;3.37;100.00;99184.22;5031517;28;20437;-90
2022/03/08 02:09:19;;;;;;;29.53;13.40;;;;;;;-0.60;100.00;98514.53;5001054;28;20214;-91
2022/03/08 02:11:46;;;;;;;28.63;13.53;;;;;;;3.24;100.00;99180.78;4998458;28;20200;-89
2022/03/08 02:14:11;;;;;;;27.27;13.87;;;;;;;3.33;100.00;99179.75;4999184;28;20170;-90
2022/03/08 02:16:37;;;;;;;18.73;8.33;;;;;;;3.22;100.00;99214.81;5030853;28;20411;-90
2022/03/08 02:19:03;;;;;;;28.57;14.83;;;;;;;1.96;100.00;98955.31;4998943;28;20171;-89
2022/03/08 02:21:34;;;;;;;30.63;14.70;;;;;;;3.21;100.00;99201.44;5000064;28;20174;-91
2022/03/08 02:23:59;;;;;;;33.13;15.30;;;;;;;0.15;100.00;98684.03;5001806;28;20407;-90
2022/03/08 02:26:26;;;;;;;33.00;15.23;;;;;;;2.39;100.00;99039.91;4986492;28;20820;-90
2022/03/08 02:28:52;;;;;;;32.93;16.07;;;;;;;3.41;100.00;99186.16;5012402;28;20172;-89
2022/03/08 02:31:18;;;;;;;33.27;16.07;;;;;;;3.24;100.00;99174.13;5013728;28;20840;-90
2022/03/08 02:33:44;;;;;;;35.37;15.97;;;;;;;2.17;100.00;99012.56;5013156;28;20400;-90
2022/03/08 02:36:10;;;;;;;30.63;14.97;;;;;;;0.05;100.00;98647.69;5013694;28;20214;-90
2022/03/08 02:38:36;;;;;;;35.10;16.07;;;;;;;3.34;100.00;99194.00;4979953;28;20416;-90
2022/03/08 02:41:01;;;;;;;35.87;15.77;;;;;;;2.59;100.00;99077.13;5011491;28;20172;-90
2022/03/08 02:43:27;;;;;;;34.73;15.00;;;;;;;3.04;100.00;99111.91;4980851;28;20236;-91
2022/03/08 02:45:52;;;;;;;33.23;15.17;;;;;;;3.42;100.00;99190.41;4982001;28;20180;-90
2022/03/08 02:48:18;;;;;;;36.47;15.33;;;;;;;-0.13;100.00;98591.63;4981386;28;20175;-91
2022/03/08 02:50:43;;;;;;;32.63;14.63;;;;;;;1.87;100.00;98948.03;4988621;28;20190;-89
2022/03/08 02:53:09;;;;;;;35.03;15.60;;;;;;;1.96;100.00;98963.66;5012338;28;20591;-91
2022/03/08 02:55:36;;;;;;;32.50;15.33;;;;;;;0.97;100.00;98791.25;4979985;28;20239;-91
2022/03/08 02:58:02;;;;;;;35.43;15.13;;;;;;;1.30;100.00;98867.53;4986136;28;20240;-89
2022/03/08 03:00:29;;;;;;;33.50;14.43;;;;;;;2.42;100.00;99030.13;4985738;28;20419;-91
2022/03/08 03:02:55;;;;;;;31.20;14.70;;;;;;;3.02;100.00;99150.06;5014062;28;20407;-91
2022/03/08 03:05:21;;;;;;;32.43;14.50;;;;;;;3.26;100.00;99180.13;5013995;28;20411;-90
2022/03/08 03:07:46;;;;;;;32.70;14.83;;;;;;;1.19;100.00;98823.53;5011388;28;20191;-90
2022/03/08 03:10:16;;;;;;;33.10;15.43;;;;;;;0.08;100.00;98612.22;4980155;28;20175;-92
2022/03/08 03:12:42;;;;;;;33.00;14.23;;;;;;;0.59;100.00;98703.00;5011254;28;20706;-91
2022/03/08 03:15:09;;;;;;;31.83;14.20;;;;;;;1.96;100.00;98930.34;5011942;28;20440;-91
2022/03/08 03:17:35;;;;;;;30.53;14.10;;;;;;;1.46;100.00;98854.50;5011428;28;20196;-90
2022/03/08 03:20:02;;;;;;;31.07;14.50;;;;;;;1.73;100.00;98903.84;5011099;28;20422;-91
2022/03/08 03:22:27;;;;;;;31.70;14.10;;;;;;;3.32;100.00;99164.66;4977731;28;20160;-91
2022/03/08 03:24:53;;;;;;;30.27;13.70;;;;;;;1.38;100.00;98811.59;5011400;28;20403;-91
2022/03/08 03:27:18;;;;;;;31.13;14.10;;;;;;;0.52;100.00;98699.19;5009884;28;20199;-90
2022/03/08 03:29:43;;;;;;;29.47;14.17;;;;;;;1.91;100.00;98921.69;4980074;28;20180;-89
2022/03/08 03:32:09;;;;;;;31.13;13.77;;;;;;;-0.35;100.00;98549.47;5012025;28;20202;-90
2022/03/08 03:34:34;;;;;;;29.23;13.70;;;;;;;-0.41;100.00;98531.59;5029939;28;20190;-89
2022/03/08 03:37:00;;;;;;;28.57;13.97;;;;;;;1.93;100.00;98911.03;4994743;28;20598;-90
2022/03/08 03:39:25;;;;;;;33.20;15.07;;;;;;;3.59;100.00;99211.56;5011347;28;20723;-90
2022/03/08 03:41:51;;;;;;;28.37;14.07;;;;;;;3.52;100.00;99189.38;5015196;28;20238;-90
2022/03/08 03:44:16;;;;;;;28.00;12.73;;;;;;;2.43;100.00;99006.03;4979854;28;20642;-90
2022/03/08 03:46:42;;;;;;;29.33;13.27;;;;;;;2.90;100.00;99082.59;4980049;28;20164;-90
2022/03/08 03:49:07;;;;;;;30.57;13.73;;;;;;;0.75;100.00;98718.25;5010397;28;20216;-91
2022/03/08 03:51:33;;;;;;;31.23;13.43;;;;;;;0.11;100.00;98650.59;5010378;28;20195;-91
2022/03/08 03:53:58;;;;;;;32.03;14.80;;;;;;;0.40;100.00;98688.38;5021728;28;20278;-90
2022/03/08 03:56:24;;;;;;;31.40;14.27;;;;;;;3.13;100.00;99149.16;5033194;28;20314;-90
2022/03/08 03:58:49;;;;;;;29.47;14.37;;;;;;;1.98;100.00;98964.63;5033609;28;20220;-90
2022/03/08 04:01:15;;;;;;;28.67;13.60;;;;;;;3.33;100.00;99197.28;5003160;28;20171;-89
2022/03/08 04:03:41;;;;;;;31.80;14.53;;;;;;;2.25;100.00;99026.47;5035100;28;20168;-91
2022/03/08 04:06:07;;;;;;;29.57;13.87;;;;;;;2.26;100.00;99010.72;4998285;28;20171;-91
2022/03/08 04:08:34;;;;;;;35.27;15.43;;;;;;;1.30;100.00;98831.75;4997058;28;20187;-91
2022/03/08 04:10:59;;;;;;;29.97;14.67;;;;;;;3.51;100.00;99212.69;4996550;28;20429;-90
2022/03/08 04:13:24;;;;;;;32.90;15.30;;;;;;;2.24;100.00;98976.44;4999729;28;20510;-90
2022/03/08 04:15:50;;;;;;;32.83;15.40;;;;;;;1.73;100.00;98887.22;4998556;28;20163;-92
2022/03/08 04:18:16;;;;;;;32.03;15.10;;;;;;;0.48;100.00;98678.97;4995726;28;20268;-90
2022/03/08 04:20:41;;;;;;;34.07;15.60;;;;;;;2.12;100.00;98953.09;5024416;28;20169;-89
2022/03/08 04:23:06;;;;;;;34.63;16.03;;;;;;;1.37;100.00;98837.28;5016907;28;20168;-91
2022/03/08 04:25:32;;;;;;;34.27;16.37;;;;;;;3.62;100.00;99196.75;4978333;28;20170;-92
2022/03/08 04:27:58;;;;;;;34.93;15.87;;;;;;;1.00;100.00;98750.72;5010706;28;20262;-90
2022/03/08 04:30:23;;;;;;;36.70;15.37;;;;;;;2.57;100.00;99021.19;4977549;28;20164;-91
2022/03/08 04:32:51;;;;;;;39.20;16.07;;;;;;;0.38;100.00;98647.59;5010609;28;20751;-91
2022/03/08 04:35:18;;;;;;;35.17;16.37;;;;;;;3.20;100.00;99143.81;4978950;28;20164;-91
2022/03/08 04:37:43;;;;;;;36.93;16.67;;;;;;;0.78;100.00;98735.91;5010048;28;20426;-90
2022/03/08 04:40:09;;;;;;;36.37;17.07;;;;;;;-0.12;100.00;98575.97;5010451;28;20448;-92
2022/03/08 04:42:35;;;;;;;35.50;16.30;;;;;;;3.78;100.00;99224.53;4979136;28;20723;-91
2022/03/08 04:45:01;;;;;;;37.60;16.73;;;;;;;2.12;100.00;98945.63;4977947;28;20415;-91
2022/03/08 04:47:26;;;;;;;35.57;15.73;;;;;;;1.27;100.00;98831.53;4984166;28;20160;-91
2022/03/08 04:49:52;;;;;;;35.53;17.03;;;;;;;2.69;100.00;99071.16;5015443;28;20249;-90
2022/03/08 04:52:17;;;;;;;39.70;18.07;;;;;;;1.17;100.00;98830.03;4978322;28;20203;-91
2022/03/08 04:54:43;;;;;;;37.27;16.93;;;;;;;1.10;100.00;98790.47;4979367;28;20173;-90
2022/03/08 04:57:08;;;;;;;36.57;17.10;;;;;;;0.28;100.00;98635.25;4979319;28;20174;-87
2022/03/08 04:59:33;;;;;;;37.03;16.33;;;;;;;1.42;100.00;98833.50;4983340;28;20281;-91
2022/03/08 05:01:59;;;;;;;45.43;19.93;;;;;;;2.96;100.00;99123.03;4979608;28;20247;-90
2022/03/08 05:04:24;;;;;;;53.80;24.37;;;;;;;2.27;100.00;98999.13;4979298;28;20282;-89
2022/03/08 05:06:50;;;;;;;62.33;27.83;;;;;;;0.58;100.00;98713.69;5011273;28;20691;-91
2022/03/08 05:09:16;;;;;;;52.47;22.67;;;;;;;1.20;100.00;98825.28;5017186;28;20179;-89
2022/03/08 05:11:43;;;;;;;54.33;22.93;;;;;;;1.08;100.00;98804.47;5017408;28;20268;-90
2022/03/08 05:14:08;;;;;;;56.10;27.27;;;;;;;0.36;100.00;98681.44;5017102;28;20416;-90
2022/03/08 05:16:37;;;;;;;47.93;23.87;;;;;;;1.23;100.00;98845.44;5017010;28;20544;-90
2022/03/08 05:19:03;;;;;;;45.00;22.20;;;;;;;0.18;100.00;98665.22;5018707;28;20180;-92
2022/03/08 05:21:28;;;;;;;37.10;18.77;;;;;;;1.29;100.00;98870.78;4989358;28;20411;-89
2022/03/08 05:23:53;;;;;;;33.77;16.33;;;;;;;3.47;100.00;99225.72;5027088;28;20252;-89
2022/03/08 05:26:19;;;;;;;35.57;17.97;;;;;;;2.49;100.00;99048.91;5011135;28;20204;-90
2022/03/08 05:28:46;;;;;;;33.80;16.97;;;;;;;1.71;100.00;98931.16;5006352;28;20263;-89
2022/03/08 05:31:12;;;;;;;37.20;17.83;;;;;;;0.20;100.00;98677.75;5005546;28;20219;-90
2022/03/08 05:33:38;;;;;;;35.70;17.00;;;;;;;1.45;100.00;98873.59;4973418;28;20446;-91
2022/03/08 05:36:03;;;;;;;35.37;18.40;;;;;;;0.15;100.00;98669.97;5005814;28;20188;-91
2022/03/08 05:38:29;;;;;;;39.03;18.47;;;;;;;2.90;100.00;99140.97;4969748;28;20243;-90
2022/03/08 05:40:54;;;;;;;37.63;19.23;;;;;;;3.36;100.00;99231.63;4992384;28;20620;-90
2022/03/08 05:43:20;;;;;;;37.13;18.17;;;;;;;1.70;100.00;98956.84;4993206;28;20206;-89
2022/03/08 05:45:45;;;;;;;36.17;17.40;;;;;;;3.02;100.00;99160.06;4991166;28;20281;-90
2022/03/08 05:48:11;;;;;;;37.57;17.40;;;;;;;3.36;100.00;99249.13;4993762;28;20238;-91
2022/03/08 05:50:37;;;;;;;38.87;18.77;;;;;;;1.84;100.00;98977.78;4995440;28;20953;-91
2022/03/08 05:53:03;;;;;;;39.20;18.37;;;;;;;1.02;100.00;98849.75;4994068;28;20714;-89
2022/03/08 05:55:28;;;;;;;36.97;17.60;;;;;;;1.95;100.00;99019.31;5003374;28;20202;-90
2022/03/08 05:57:54;;;;;;;38.30;17.90;;;;;;;2.41;100.00;99075.88;4993528;28;20963;-91
2022/03/08 06:00:19;;;;;;;36.37;17.77;;;;;;;2.23;100.00;99049.59;4994127;28;20253;-91
2022/03/08 06:02:45;;;;;;;40.33;18.70;;;;;;;3.31;100.00;99250.47;4993501;28;20584;-91
2022/03/08 06:05:11;;;;;;;36.57;17.57;;;;;;;1.22;100.00;98876.09;4994413;28;20187;-91
2022/03/08 06:07:36;;;;;;;35.87;16.60;;;;;;;1.32;100.00;98905.03;4996787;28;20191;-90
2022/03/08 06:10:04;;;;;;;38.83;18.17;;;;;;;1.25;100.00;98933.66;4994671;28;20257;-92
2022/03/08 06:12:29;;;;;;;39.47;17.67;;;;;;;2.68;100.00;99124.38;4993097;28;20215;-91
2022/03/08 06:14:55;;;;;;;39.43;18.27;;;;;;;2.62;100.00;99119.81;4993016;28;20438;-90
2022/03/08 06:17:20;;;;;;;42.97;19.70;;;;;;;2.88;100.00;99169.97;4992739;28;20213;-91
2022/03/08 06:19:46;;;;;;;41.70;19.03;;;;;;;3.45;100.00;99272.31;4992821;28;20335;-91
2022/03/08 06:22:11;;;;;;;40.37;18.90;;;;;;;1.98;100.00;99004.56;4993568;28;20532;-91
2022/03/08 06:24:40;;;;;;;41.33;18.57;;;;;;;2.20;100.00;99055.25;4994783;28;20711;-90
2022/03/08 06:27:05;;;;;;;42.93;20.33;;;;;;;3.52;100.00;99269.44;4994472;28;20187;-89
2022/03/08 06:29:31;;;;;;;40.60;19.33;;;;;;;2.31;100.00;99105.94;4994487;28;20434;-90
2022/03/08 06:31:56;;;;;;;40.23;19.23;;;;;;;1.85;100.00;98996.13;4995794;28;20637;-90
2022/03/08 06:34:22;;;;;;;37.17;17.80;;;;;;;2.01;100.00;99022.25;4994916;28;20218;-89
2022/03/08 06:36:47;;;;;;;34.63;17.13;;;;;;;3.01;100.00;99190.81;4984469;28;20257;-90
2022/03/08 06:39:14;;;;;;;33.57;17.20;;;;;;;1.77;100.00;99008.94;4992228;28;20211;-90
2022/03/08 06:41:39;;;;;;;34.77;17.00;;;;;;;2.97;100.00;99204.72;4994196;28;20773;-89
2022/03/08 06:44:05;;;;;;;34.97;16.63;;;;;;;1.30;100.00;98896.56;4995856;28;20509;-90
2022/03/08 06:46:31;;;;;;;36.93;18.77;;;;;;;1.70;100.00;98981.78;5003907;28;20183;-89
2022/03/08 06:48:56;;;;;;;40.90;20.57;;;;;;;1.82;100.00;98988.41;4998981;28;20210;-90
2022/03/08 06:51:22;;;;;;;45.40;21.33;;;;;;;0.57;100.00;98796.66;4995827;28;20895;-90
2022/03/08 06:53:47;;;;;;;42.67;20.37;;;;;;;1.94;100.00;99037.56;5022591;28;20199;-89
2022/03/08 06:56:13;;;;;;;46.33;21.33;;;;;;;3.43;100.00;99293.84;4983836;28;20190;-91
2022/03/08 06:58:38;;;;;;;47.30;21.77;;;;;;;2.62;100.00;99141.44;4981528;28;20183;-90
2022/03/08 07:01:04;;;;;;;43.30;20.23;;;;;;;3.10;100.00;99217.34;4984351;28;20195;-90
2022/03/08 07:03:29;;;;;;;48.07;20.80;;;;;;;1.43;100.00;98944.06;4994595;28;20683;-89
2022/03/08 07:05:55;;;;;;;45.07;19.63;;;;;;;2.72;100.00;99162.16;4983789;28;20833;-90
2022/03/08 07:08:20;;;;;;;41.80;20.03;;;;;;;2.55;100.00;99127.66;4989551;28;20195;-88
2022/03/08 07:10:46;;;;;;;45.90;20.93;;;;;;;2.50;100.00;99118.94;4990052;28;20217;-89
2022/03/08 07:13:11;;;;;;;49.00;20.33;;;;;;;1.38;100.00;98940.38;4986032;28;20230;-91
2022/03/08 07:15:38;;;;;;;50.20;21.50;;;;;;;3.47;100.00;99296.66;5024667;28;20212;-91
2022/03/08 07:18:04;;;;;;;54.63;26.33;;;;;;;2.35;100.00;99090.41;4994734;28;20260;-89
2022/03/08 07:20:29;;;;;;;53.57;24.53;;;;;;;2.57;100.00;99115.25;4993963;28;20435;-90
2022/03/08 07:22:55;;;;;;;41.33;18.30;;;;;;;2.52;100.00;99104.97;4994670;28;20184;-90
2022/03/08 07:25:20;;;;;;;46.03;20.87;;;;;;;3.09;100.00;99228.09;5013888;28;20205;-92
2022/03/08 07:27:46;;;;;;;41.20;19.07;;;;;;;3.50;100.00;99296.88;5023914;28;20716;-91
2022/03/08 07:30:12;;;;;;;45.77;21.23;;;;;;;2.80;100.00;99176.06;4979540;28;20210;-91
2022/03/08 07:32:37;;;;;;;48.77;22.00;;;;;;;3.49;100.00;99284.25;4988338;28;20269;-91
2022/03/08 07:35:05;;;;;;;48.47;22.93;;;;;;;3.50;100.00;99291.88;4976520;28;20559;-89
2022/03/08 07:37:35;;;;;;;52.17;22.93;;;;;;;0.48;100.00;98786.88;4970726;28;20231;-90
2022/03/08 07:40:01;;;;;;;44.40;20.70;;;;;;;2.25;100.00;99081.41;4976930;28;20510;-91
2022/03/08 07:42:27;;;;;;;48.87;23.53;;;;;;;1.97;100.00;99009.47;4974680;28;20530;-91
2022/03/08 07:44:53;;;;;;;46.97;22.43;;;;;;;2.87;100.00;99195.75;4977567;28;20200;-91
2022/03/08 07:47:19;;;;;;;41.80;19.70;;;;;;;-0.32;100.00;98660.69;4975099;28;20966;-92
2022/03/08 07:49:44;;;;;;;44.37;20.00;;;;;;;1.61;100.00;98963.69;4980382;28;20611;-90
2022/03/08 07:52:10;;;;;;;44.50;21.40;;;;;;;2.13;100.00;99074.69;4974361;28;20196;-90
2022/03/08 07:54:35;;;;;;;62.50;27.13;;;;;;;2.07;100.00;99025.19;4983129;28;20188;-91
2022/03/08 07:57:01;;;;;;;44.57;21.10;;;;;;;3.42;100.00;99214.53;4973664;28;20200;-90
2022/03/08 07:59:26;;;;;;;42.13;19.70;;;;;;;3.97;100.00;99277.56;4975542;28;20192;-89
2022/03/08 08:01:52;;;;;;;43.73;21.37;;;;;;;2.52;100.00;99029.16;4963507;28;20321;-90
2022/03/08 08:04:18;;;;;;;50.07;22.93;;;;;;;4.11;100.00;99265.97;4965989;28;20187;-90
2022/03/08 08:06:43;;;;;;;33.73;15.83;;;;;;;3.59;100.00;99151.50;4976044;28;20820;-91
2022/03/08 08:09:09;;;;;;;33.00;14.50;;;;;;;3.60;100.00;99164.88;4964547;28;20238;-91
2022/03/08 08:11:34;;;;;;;28.67;13.83;;;;;;;3.33;100.00;99131.34;4962508;28;20184;-91
2022/03/08 08:14:00;;;;;;;37.57;16.43;;;;;;;3.69;100.00;99161.34;4967352;28;20594;-91
2022/03/08 08:16:25;;;;;;;37.83;17.37;;;;;;;3.16;100.00;99056.84;4966814;28;20870;-90
2022/03/08 08:18:51;;;;;;;33.57;16.63;;;;;;;1.47;100.00;98761.47;4963255;28;20659;-90
2022/03/08 08:21:16;;;;;;;29.50;15.00;;;;;;;3.86;100.00;99157.44;4970701;28;20176;-91
2022/03/08 08:23:42;;;;;;;29.27;15.07;;;;;;;4.80;100.00;99263.78;4967940;28;20195;-90
2022/03/08 08:26:08;;;;;;;29.87;15.10;;;;;;;3.90;100.00;99099.31;4971640;28;20203;-90
2022/03/08 08:28:33;;;;;;;30.40;15.80;;;;;;;3.11;100.00;98955.63;4972567;28;20869;-89
2022/03/08 08:31:00;;;;;;;32.00;15.97;;;;;;;4.12;100.00;99072.34;4952853;28;20757;-91
2022/03/08 08:33:25;;;;;;;33.97;16.43;;;;;;;4.28;100.00;99085.06;4968207;28;20199;-91
2022/03/08 08:35:50;;;;;;;42.93;19.20;;;;;;;3.61;100.00;98968.91;4973849;28;20453;-90
2022/03/08 08:38:19;;;;;;;54.90;23.33;;;;;;;5.06;100.00;99219.50;4958302;28;20239;-93
2022/03/08 08:40:44;;;;;;;36.50;17.30;;;;;;;3.37;100.00;98891.53;4977672;28;20195;-92
2022/03/08 08:43:13;;;;;;;28.80;15.60;;;;;;;5.57;100.00;99278.69;4980114;28;20544;-90
2022/03/08 08:45:39;;;;;;;31.13;14.63;;;;;;;3.49;100.00;98909.81;4982426;28;20196;-91
2022/03/08 08:48:07;;;;;;;36.73;17.53;;;;;;;5.08;100.00;99167.78;4972348;28;20981;-90
2022/03/08 08:50:32;;;;;;;31.90;16.00;;;;;;;4.78;100.00;99124.94;4971849;28;20264;-91
2022/03/08 08:52:58;;;;;;;30.07;15.10;;;;;;;5.69;100.00;99295.38;4965972;28;20498;-93
2022/03/08 08:55:24;;;;;;;33.17;15.27;;;;;;;2.89;100.00;98871.75;4963877;28;20204;-89
2022/03/08 08:57:50;;;;;;;33.17;16.73;;;;;;;5.24;100.00;99280.88;4969150;28;20184;-91
2022/03/08 09:00:15;;;;;;;33.83;15.57;;;;;;;3.99;100.00;99058.16;4994255;28;20505;-90
2022/03/08 09:02:43;;;;;;;35.40;17.40;;;;;;;4.76;100.00;99182.50;4963614;28;20710;-90
2022/03/08 09:05:10;;;;;;;51.20;23.20;;;;;;;5.28;100.00;99277.78;4974777;28;20184;-89
2022/03/08 09:07:36;;;;;;;39.47;18.33;;;;;;;5.11;100.00;99255.78;4973046;28;20442;-88
2022/03/08 09:10:02;;;;;;;33.77;15.93;;;;;;;4.61;100.00;99161.50;4972066;28;20466;-89
2022/03/08 09:12:28;;;;;;;35.63;17.47;;;;;;;5.04;100.00;99266.22;4972524;28;20207;-89
2022/03/08 09:14:54;;;;;;;37.23;18.47;;;;;;;4.22;100.00;99159.84;4972526;28;20517;-89
2022/03/08 09:17:21;;;;;;;36.37;17.43;;;;;;;3.14;100.00;98994.22;4975378;28;20176;-89
2022/03/08 09:19:47;;;;;;;34.97;16.17;;;;;;;0.84;100.00;98628.38;4974726;28;20442;-89
2022/03/08 09:22:13;;;;;;;32.67;15.23;;;;;;;2.52;100.00;98937.59;4968097;28;20447;-89
2022/03/08 09:24:39;;;;;;;28.90;14.27;;;;;;;1.54;100.00;98786.09;4967398;28;20449;-91
2022/03/08 09:27:05;;;;;;;44.40;19.20;;;;;;;2.38;100.00;98925.81;4973918;28;20184;-91
2022/03/08 09:29:31;;;;;;;27.13;13.53;;;;;;;1.92;100.00;98858.56;4963334;28;21227;-89
2022/03/08 09:31:57;;;;;;;41.87;19.93;;;;;;;3.16;100.00;99066.88;4970136;28;20574;-88
2022/03/08 09:34:22;;;;;;;20.50;10.63;;;;;;;3.30;100.00;99116.13;4972873;28;20256;-90
2022/03/08 09:36:51;;;;;;;22.63;11.43;;;;;;;2.29;100.00;98907.69;4971811;28;20543;-89
2022/03/08 09:39:16;;;;;;;22.50;12.03;;;;;;;4.23;100.00;99208.31;4970816;28;20243;-88
2022/03/08 09:41:43;;;;;;;24.33;12.30;;;;;;;4.51;100.00;99234.34;4981736;28;20467;-89
2022/03/08 09:44:13;;;;;;;19.80;10.37;;;;;;;3.79;100.00;99072.72;5004690;28;20192;-90
2022/03/08 09:46:39;;;;;;;19.93;10.60;;;;;;;4.81;100.00;99278.94;4966342;28;20447;-88
2022/03/08 09:49:05;;;;;;;28.53;14.03;;;;;;;5.11;100.00;99287.53;4974273;28;20431;-88
2022/03/08 09:51:38;;;;;;;22.43;12.33;;;;;;;1.72;100.00;98665.09;4971322;28;20496;-89
2022/03/08 09:54:06;;;;;;;21.20;11.63;;;;;;;3.32;100.00;98949.53;4977026;28;20187;-89
2022/03/08 09:56:33;;;;;;;18.33;8.87;;;;;;;2.54;100.00;98835.25;4970247;28;20434;-89
2022/03/08 09:58:59;;;;;;;27.90;14.20;;;;;;;4.57;100.00;99169.56;4974892;28;20523;-89
2022/03/08 10:01:26;;;;;;;25.67;13.10;;;;;;;5.03;100.00;99221.81;4970616;28;20440;-89
2022/03/08 10:03:52;;;;;;;26.00;13.63;;;;;;;5.56;100.00;99304.56;4974162;28;20481;-88
2022/03/08 10:06:17;;;;;;;26.37;13.57;;;;;;;5.10;100.00;99193.84;4976337;28;20446;-89
2022/03/08 10:08:43;;;;;;;27.80;14.57;;;;;;;5.63;100.00;99291.63;4980862;28;20191;-89
2022/03/08 10:11:14;;;;;;;27.83;14.20;;;;;;;4.47;100.00;99072.03;4967919;28;20204;-90
2022/03/08 10:13:43;;;;;;;27.10;13.87;;;;;;;5.81;100.00;99296.13;4953376;28;20443;-90
2022/03/08 10:16:14;;;;;;;31.03;15.13;;;;;;;5.80;100.00;99293.50;4981906;28;20904;-88
2022/03/08 10:18:52;;;;;;;35.20;17.10;;;;;;;5.26;100.00;99220.72;4969624;28;20465;-90
2022/03/08 10:21:30;;;;;;;37.73;16.73;;;;;;;5.70;100.00;99296.25;4972252;28;20435;-91
2022/03/08 10:23:58;;;;;;;36.13;17.17;;;;;;;3.53;100.00;98941.78;4982125;28;20438;-91
2022/03/08 10:26:24;;;;;;;41.83;19.47;;;;;;;4.29;100.00;99085.91;4970225;28;20467;-91
2022/03/08 10:28:52;;;;;;;29.33;15.00;;;;;;;5.36;100.00;99243.09;4959104;28;20436;-91
2022/03/08 10:31:19;;;;;;;27.13;12.03;;;;;;;2.30;100.00;98690.56;4971811;28;21237;-91
2022/03/08 10:33:45;;;;;;;30.97;15.83;;;;;;;5.31;100.00;99202.69;4991373;28;20941;-90
2022/03/08 10:36:14;;;;;;;29.40;15.20;;;;;;;3.11;100.00;98814.00;4971990;28;20431;-92
2022/03/08 10:38:41;;;;;;;31.80;15.33;;;;;;;6.19;100.00;99287.50;4961970;28;20498;-91
2022/03/08 10:41:19;;;;;;;28.70;14.50;;;;;;;4.46;100.00;98929.97;4975783;28;20435;-90
2022/03/08 10:43:49;;;;;;;27.20;13.47;;;;;;;6.82;100.00;99310.44;4982067;28;20431;-89
2022/03/08 10:46:18;;;;;;;181.33;60.20;;;;;;;5.50;100.00;99048.13;4966338;28;20499;-91
2022/03/08 10:48:47;;;;;;;40.67;20.57;;;;;;;6.44;99.39;99205.16;4968271;28;21222;-90
2022/03/08 10:51:17;;;;;;;58.33;31.73;;;;;;;5.83;99.82;99060.09;4970014;28;20463;-92
2022/03/08 10:53:44;;;;;;;27.77;14.07;;;;;;;7.22;98.16;99289.25;4961835;28;20584;-91
2022/03/08 10:56:10;;;;;;;35.33;19.23;;;;;;;5.22;97.34;99010.53;4998493;28;20455;-91
2022/03/08 10:58:50;;;;;;;35.67;19.43;;;;;;;6.05;97.03;99127.50;4984808;28;20210;-91
2022/03/08 11:01:15;;;;;;;32.50;20.20;;;;;;;5.87;95.68;99129.88;4975625;28;20913;-91
2022/03/08 11:03:54;;;;;;;41.17;21.87;;;;;;;5.40;96.95;99016.63;4974874;28;20431;-91
2022/03/08 11:06:22;;;;;;;47.07;26.30;;;;;;;6.00;97.11;99139.81;4970034;28;20723;-91
2022/03/08 11:08:47;;;;;;;39.80;22.13;;;;;;;3.13;95.75;98664.91;4994618;28;20428;-92
2022/03/08 11:11:14;;;;;;;31.97;16.63;;;;;;;6.35;97.61;99218.09;4960896;28;20252;-92